www.srh.weather.gov   
NOAA logo - Click to go to the NOAA homepage   NWS logo
Terminal Aerodrome Forecast
Enter Your "City, ST" or zip code   
Current Version              Previous Version:    01  02  03  04  05  06  07  08  09  10  11  12  13  14  15  16  17  18  19  20  21  22  23  24  25  26  27  28  29  30  
   31  32  33  34  35  36  37  38  39  40  41  42  43  44  45  46  47  48  49  50  51  52  53  54  55  56  57  58  59  60  
[Printable]
006
FTUS44 KSHV 220003 RRD
TAFSHV

KSHV 222320Z 2200/2224 15007KT 6SM -RA BR SCT035 OVC050
      TEMPO 2200/2202 14007KT 5SM -RA BR BKN025 OVC045
      FM220300 13009KT 5SM BR OVC050
     FM220600 14008KT 5SM BR OVC045
      TEMPO 2211/2213 3SM BR BKN035
     FM221500 14008KT P6SM BKN050 OVC070
     FM221800 15012G18KT P6SM OVC050=

National Weather Service
Disclaimer
Last Modified: August 31, 2005
Privacy Policy